createdAt,value
2022-09-18T00:02:08.739Z,75.5
2022-09-18T00:05:08.652Z,75.5
2022-09-18T00:08:08.648Z,75.5
2022-09-18T00:11:08.647Z,75.5
2022-09-18T00:14:08.667Z,75.5
2022-09-18T00:17:09.231Z,75.5
2022-09-18T00:20:08.647Z,75.5
2022-09-18T00:23:08.662Z,75.5
2022-09-18T00:26:08.649Z,75.5
2022-09-18T00:29:08.654Z,75.5
2022-09-18T00:32:08.649Z,75.5
2022-09-18T00:35:08.648Z,75.5
2022-09-18T00:38:08.673Z,75.5
2022-09-18T00:41:08.645Z,75.5
2022-09-18T00:44:08.648Z,75.5
2022-09-18T00:47:08.666Z,75.5
2022-09-18T00:50:08.647Z,75.5
2022-09-18T00:53:08.668Z,75.5
2022-09-18T00:56:08.650Z,75.5
2022-09-18T00:59:08.667Z,75.5
2022-09-18T01:02:08.703Z,75.5
2022-09-18T01:05:08.667Z,76
2022-09-18T01:08:08.668Z,76
2022-09-18T01:11:08.647Z,76
2022-09-18T01:14:08.662Z,76
2022-09-18T01:17:08.664Z,76
2022-09-18T01:20:08.667Z,76
2022-09-18T01:23:08.689Z,76
2022-09-18T01:26:08.665Z,76
2022-09-18T01:29:08.674Z,76
2022-09-18T01:32:08.673Z,76
2022-09-18T01:35:14.137Z,76
2022-09-18T01:38:08.674Z,76
2022-09-18T01:41:08.671Z,76
2022-09-18T01:44:08.671Z,76
2022-09-18T01:47:08.661Z,76
2022-09-18T01:50:08.670Z,76
2022-09-18T01:53:08.678Z,76
2022-09-18T01:56:08.673Z,76
2022-09-18T01:59:08.667Z,76
2022-09-18T02:02:08.730Z,76
2022-09-18T02:05:08.666Z,76
2022-09-18T02:08:08.685Z,76
2022-09-18T02:11:08.664Z,76
2022-09-18T02:14:08.669Z,76
2022-09-18T02:17:08.662Z,76
2022-09-18T02:20:08.678Z,76
2022-09-18T02:23:08.677Z,76
2022-09-18T02:26:08.674Z,76
2022-09-18T02:29:08.672Z,76
2022-09-18T02:32:08.672Z,76.5
2022-09-18T02:35:08.676Z,76.5
2022-09-18T02:38:08.674Z,76.5
2022-09-18T02:41:08.682Z,76.5
2022-09-18T02:44:08.678Z,76.5
2022-09-18T02:47:08.670Z,76.5
2022-09-18T02:50:08.681Z,76.5
2022-09-18T02:53:08.678Z,76.5
2022-09-18T02:56:08.661Z,76.5
2022-09-18T02:59:08.676Z,76.5
2022-09-18T03:02:08.783Z,76.5
2022-09-18T03:05:08.674Z,76.5
2022-09-18T03:08:08.673Z,76.5
2022-09-18T03:11:08.677Z,76.5
2022-09-18T03:14:08.689Z,76.5
2022-09-18T03:17:08.666Z,76.5
2022-09-18T03:20:08.675Z,76.5
2022-09-18T03:23:08.695Z,77
2022-09-18T03:26:08.667Z,77
2022-09-18T03:29:08.675Z,77
2022-09-18T03:32:08.676Z,77
2022-09-18T03:35:08.684Z,77
2022-09-18T03:38:08.693Z,77
2022-09-18T03:41:08.681Z,77
2022-09-18T03:44:08.681Z,77
2022-09-18T03:47:08.675Z,77
2022-09-18T03:50:08.682Z,77
2022-09-18T03:53:08.704Z,77
2022-09-18T03:56:08.697Z,77
2022-09-18T03:59:08.691Z,77
2022-09-18T04:02:08.716Z,77
2022-09-18T04:05:08.690Z,77
2022-09-18T04:08:08.677Z,77
2022-09-18T04:11:08.710Z,77
2022-09-18T04:14:08.692Z,77
2022-09-18T04:17:08.689Z,77
2022-09-18T04:20:08.677Z,77
2022-09-18T04:23:08.685Z,77
2022-09-18T04:26:08.685Z,77
2022-09-18T04:29:08.698Z,77
2022-09-18T04:32:08.681Z,77
2022-09-18T04:35:08.700Z,77
2022-09-18T04:38:08.699Z,77
2022-09-18T04:41:08.688Z,76.5
2022-09-18T04:44:08.695Z,77
2022-09-18T04:47:08.684Z,77
2022-09-18T04:50:08.692Z,77
2022-09-18T04:53:08.700Z,77
2022-09-18T04:56:08.691Z,77
2022-09-18T04:59:08.700Z,77
2022-09-18T05:02:08.749Z,77
2022-09-18T05:05:08.689Z,77
2022-09-18T05:08:08.691Z,77
2022-09-18T05:11:08.690Z,77
2022-09-18T05:14:08.693Z,76.5
2022-09-18T05:17:08.705Z,76.5
2022-09-18T05:20:08.722Z,76.5
2022-09-18T05:23:09.290Z,76.5
2022-09-18T05:26:09.250Z,76.5
2022-09-18T05:29:09.255Z,76.5
2022-09-18T05:32:09.239Z,76.5
2022-09-18T05:35:09.233Z,76.5
2022-09-18T05:38:09.237Z,76.5
2022-09-18T05:41:09.238Z,76.5
2022-09-18T05:44:09.311Z,76.5
2022-09-18T05:47:09.235Z,76.5
2022-09-18T05:50:09.232Z,76.5
2022-09-18T05:53:09.253Z,76.5
2022-09-18T05:56:09.247Z,76.5
2022-09-18T05:59:09.245Z,76.5
2022-09-18T06:02:09.297Z,76.5
2022-09-18T06:05:09.242Z,76.5
2022-09-18T06:08:09.245Z,76.5
2022-09-18T06:11:09.241Z,76.5
2022-09-18T06:14:09.237Z,76.5
2022-09-18T06:17:09.242Z,76.5
2022-09-18T06:20:09.238Z,76.5
2022-09-18T06:23:09.238Z,76.5
2022-09-18T06:26:12.746Z,76.5
2022-09-18T06:29:09.268Z,76.5
2022-09-18T06:32:09.251Z,76.5
2022-09-18T06:35:09.247Z,76.5
2022-09-18T06:38:09.268Z,76.5
2022-09-18T06:41:09.240Z,76.5
2022-09-18T06:44:09.246Z,76.5
2022-09-18T06:47:09.238Z,76.5
2022-09-18T06:50:09.235Z,76.5
2022-09-18T06:53:12.603Z,76.5
2022-09-18T06:56:09.235Z,76.5
2022-09-18T06:59:09.242Z,76
2022-09-18T07:02:09.311Z,76
2022-09-18T07:05:09.244Z,76
2022-09-18T07:08:09.244Z,76
2022-09-18T07:11:09.244Z,76
2022-09-18T07:14:09.246Z,76
2022-09-18T07:17:09.972Z,76
2022-09-18T07:20:09.239Z,76
2022-09-18T07:23:09.249Z,76
2022-09-18T07:26:09.243Z,76
2022-09-18T07:29:10.174Z,76
2022-09-18T07:32:09.239Z,76
2022-09-18T07:35:09.253Z,76
2022-09-18T07:38:09.258Z,76
2022-09-18T07:41:09.253Z,76
2022-09-18T07:44:09.246Z,76
2022-09-18T07:47:09.248Z,76
2022-09-18T07:50:09.239Z,77
2022-09-18T07:53:09.281Z,77
2022-09-18T07:56:09.248Z,76.5
2022-09-18T07:59:09.254Z,76.5
2022-09-18T08:02:09.309Z,77
2022-09-18T08:05:09.248Z,77
2022-09-18T08:08:09.332Z,77
2022-09-18T08:11:09.233Z,77
2022-09-18T08:14:09.234Z,77
2022-09-18T08:17:09.256Z,77
2022-09-18T08:20:09.237Z,77
2022-09-18T08:23:09.277Z,77
2022-09-18T08:26:09.255Z,77
2022-09-18T08:29:09.244Z,77
2022-09-18T08:32:10.064Z,77
2022-09-18T08:35:09.254Z,77.5
2022-09-18T08:38:09.249Z,77.5
2022-09-18T08:41:09.270Z,77.5
2022-09-18T08:44:09.242Z,77
2022-09-18T08:47:09.265Z,77
2022-09-18T08:50:09.235Z,76.5
2022-09-18T08:53:09.248Z,76.5
2022-09-18T08:56:09.242Z,76.5
2022-09-18T08:59:09.252Z,76.5
2022-09-18T09:02:09.301Z,77
2022-09-18T09:05:09.240Z,77
2022-09-18T09:08:09.240Z,77
2022-09-18T09:11:09.241Z,76.5
2022-09-18T09:14:09.240Z,76.5
2022-09-18T09:17:09.255Z,76.5
2022-09-18T09:20:09.246Z,76.5
2022-09-18T09:23:09.274Z,76.5
2022-09-18T09:26:09.263Z,76.5
2022-09-18T09:29:09.253Z,76.5
2022-09-18T09:32:09.270Z,76.5
2022-09-18T09:35:09.252Z,76.5
2022-09-18T09:38:09.260Z,76.5
2022-09-18T09:41:09.255Z,76.5
2022-09-18T09:44:09.253Z,77
2022-09-18T09:47:09.300Z,77
2022-09-18T09:50:09.261Z,77
2022-09-18T09:53:09.276Z,77
2022-09-18T09:56:09.255Z,76.5
2022-09-18T09:59:09.275Z,76.5
2022-09-18T10:02:09.281Z,76.5
2022-09-18T10:05:09.248Z,76.5
2022-09-18T10:08:09.263Z,76.5
2022-09-18T10:11:09.277Z,76.5
2022-09-18T10:14:09.272Z,76.5
2022-09-18T10:17:09.259Z,76.5
2022-09-18T10:20:09.256Z,76.5
2022-09-18T10:23:09.267Z,76.5
2022-09-18T10:26:09.267Z,76
2022-09-18T10:29:09.263Z,76
2022-09-18T10:32:09.276Z,76
2022-09-18T10:35:09.261Z,75.5
2022-09-18T10:38:09.274Z,75.5
2022-09-18T10:41:09.254Z,75.5
2022-09-18T10:44:09.265Z,76
2022-09-18T10:47:09.274Z,76
2022-09-18T10:50:09.267Z,76.5
2022-09-18T10:53:09.269Z,76.5
2022-09-18T10:56:09.317Z,76.5
2022-09-18T10:59:09.268Z,76.5
2022-09-18T11:02:09.271Z,76.5
2022-09-18T11:05:09.269Z,76.5
2022-09-18T11:08:09.259Z,76.5
2022-09-18T11:11:09.257Z,76.5
2022-09-18T11:14:09.275Z,76.5
2022-09-18T11:17:09.261Z,76.5
2022-09-18T11:20:09.258Z,76.5
2022-09-18T11:23:09.279Z,76.5
2022-09-18T11:26:09.283Z,76.5
2022-09-18T11:29:09.280Z,76.5
2022-09-18T11:32:09.287Z,76.5
2022-09-18T11:35:09.275Z,76.5
2022-09-18T11:38:09.277Z,76.5
2022-09-18T11:41:09.265Z,76.5
2022-09-18T11:44:09.258Z,76
2022-09-18T11:47:09.360Z,76
2022-09-18T11:50:09.263Z,76
2022-09-18T11:53:09.273Z,76
2022-09-18T11:56:09.256Z,75.5
2022-09-18T11:59:09.287Z,75.5
2022-09-18T12:02:09.340Z,75.5
2022-09-18T12:05:09.286Z,75.5
2022-09-18T12:08:07.929Z,75.5
2022-09-18T12:11:07.917Z,75.5
2022-09-18T12:14:07.911Z,75.5
2022-09-18T12:17:07.932Z,75.5
2022-09-18T12:20:07.904Z,75
2022-09-18T12:23:07.915Z,75
2022-09-18T12:26:07.913Z,74.5
2022-09-18T12:29:07.903Z,74.5
2022-09-18T12:32:07.923Z,74.5
2022-09-18T12:35:07.892Z,74.5
2022-09-18T12:38:07.906Z,74.5
2022-09-18T12:41:08.566Z,74
2022-09-18T12:44:08.556Z,74
2022-09-18T12:47:08.564Z,74
2022-09-18T12:50:08.561Z,74
2022-09-18T12:53:09.738Z,74
2022-09-18T12:56:08.547Z,74
2022-09-18T12:59:08.546Z,73.5
2022-09-18T13:02:08.569Z,73.5
2022-09-18T13:05:08.554Z,73.5
2022-09-18T13:08:08.546Z,73.5
2022-09-18T13:11:08.539Z,73.5
2022-09-18T13:14:08.542Z,73.5
2022-09-18T13:17:09.291Z,73.5
2022-09-18T13:20:09.256Z,73.5
2022-09-18T13:23:09.260Z,73.5
2022-09-18T13:26:09.254Z,73
2022-09-18T13:29:09.257Z,73
2022-09-18T13:32:09.277Z,73
2022-09-18T13:35:09.249Z,73
2022-09-18T13:38:09.276Z,73
2022-09-18T13:41:09.254Z,73
2022-09-18T13:44:09.258Z,73
2022-09-18T13:47:09.267Z,73
2022-09-18T13:50:09.256Z,73
2022-09-18T13:53:09.249Z,73
2022-09-18T13:56:09.249Z,73
2022-09-18T13:59:09.238Z,73
2022-09-18T14:02:09.313Z,73
2022-09-18T14:05:09.249Z,73
2022-09-18T14:08:09.241Z,73
2022-09-18T14:11:15.258Z,73
2022-09-18T14:14:09.243Z,73
2022-09-18T14:17:09.256Z,72
2022-09-18T14:20:09.237Z,72
2022-09-18T14:23:09.263Z,72
2022-09-18T14:26:09.235Z,72
2022-09-18T14:29:09.241Z,72
2022-09-18T14:32:09.259Z,72
2022-09-18T14:35:09.233Z,72
2022-09-18T14:38:09.273Z,72
2022-09-18T14:41:09.279Z,72
2022-09-18T14:44:09.245Z,72
2022-09-18T14:47:09.267Z,72
2022-09-18T14:50:09.437Z,72
2022-09-18T14:53:09.273Z,72
2022-09-18T14:56:09.278Z,72
2022-09-18T14:59:09.261Z,72
2022-09-18T15:02:12.380Z,72
2022-09-18T15:05:09.256Z,72
2022-09-18T15:08:09.276Z,72
2022-09-18T15:11:09.258Z,72
2022-09-18T15:14:09.283Z,72
2022-09-18T15:17:09.289Z,72
2022-09-18T15:20:09.259Z,72
2022-09-18T15:23:09.285Z,72.5
2022-09-18T15:26:09.279Z,72.5
2022-09-18T15:29:09.262Z,72.5
2022-09-18T15:32:09.317Z,72.5
2022-09-18T15:35:09.293Z,72.5
2022-09-18T15:38:09.306Z,73
2022-09-18T15:41:09.290Z,73
2022-09-18T15:44:09.307Z,73
2022-09-18T15:47:09.295Z,73
2022-09-18T15:50:09.298Z,73
2022-09-18T15:53:09.308Z,73
2022-09-18T15:56:09.324Z,73
2022-09-18T15:59:09.315Z,73.5
2022-09-18T16:02:09.393Z,73.5
2022-09-18T16:05:09.304Z,73.5
2022-09-18T16:08:09.318Z,74
2022-09-18T16:11:09.291Z,74
2022-09-18T16:14:09.327Z,74
2022-09-18T16:17:09.311Z,74
2022-09-18T16:20:09.324Z,74
2022-09-18T16:23:09.308Z,74
2022-09-18T16:26:09.290Z,74.5
2022-09-18T16:29:09.297Z,74.5
2022-09-18T16:32:09.298Z,75
2022-09-18T16:35:09.296Z,75
2022-09-18T16:38:09.327Z,75
2022-09-18T16:41:09.315Z,75
2022-09-18T16:44:09.313Z,75
2022-09-18T16:47:09.315Z,76
2022-09-18T16:50:09.302Z,76
2022-09-18T16:53:09.309Z,76
2022-09-18T16:56:09.309Z,76
2022-09-18T16:59:09.300Z,76
2022-09-18T17:02:09.327Z,76
2022-09-18T17:05:09.303Z,76
2022-09-18T17:08:09.320Z,76
2022-09-18T17:11:09.302Z,76
2022-09-18T17:14:09.323Z,76
2022-09-18T17:17:09.348Z,76
2022-09-18T17:20:09.303Z,76.5
2022-09-18T17:23:09.317Z,77
2022-09-18T17:26:09.315Z,77
2022-09-18T17:29:09.316Z,77
2022-09-18T17:32:09.318Z,77
2022-09-18T17:35:09.327Z,77
2022-09-18T17:38:09.324Z,77
2022-09-18T17:41:09.386Z,77
2022-09-18T17:44:09.306Z,77
2022-09-18T17:47:09.312Z,77
2022-09-18T17:50:09.322Z,77
2022-09-18T17:53:09.314Z,77
2022-09-18T17:56:09.322Z,77
2022-09-18T17:59:09.313Z,77.5
2022-09-18T18:02:09.390Z,78
2022-09-18T18:05:09.324Z,78
2022-09-18T18:08:09.319Z,78
2022-09-18T18:11:09.322Z,78
2022-09-18T18:14:09.327Z,78
2022-09-18T18:17:09.321Z,78
2022-09-18T18:20:09.306Z,78
2022-09-18T18:23:12.606Z,78
2022-09-18T18:26:09.313Z,78
2022-09-18T18:29:09.323Z,78
2022-09-18T18:32:09.325Z,78
2022-09-18T18:35:09.319Z,78.5
2022-09-18T18:38:09.325Z,78.5
2022-09-18T18:41:09.324Z,79
2022-09-18T18:44:09.326Z,79
2022-09-18T18:47:09.327Z,79
2022-09-18T18:50:09.324Z,79
2022-09-18T18:53:09.343Z,79
2022-09-18T18:56:09.328Z,79
2022-09-18T18:59:09.324Z,79
2022-09-18T19:02:09.362Z,79
2022-09-18T19:05:09.326Z,79
2022-09-18T19:08:09.328Z,79
2022-09-18T19:11:09.329Z,79
2022-09-18T19:14:09.329Z,79
2022-09-18T19:17:09.325Z,79
2022-09-18T19:20:09.321Z,79
2022-09-18T19:23:09.330Z,79
2022-09-18T19:26:09.329Z,79
2022-09-18T19:29:09.329Z,79
2022-09-18T19:32:09.326Z,79
2022-09-18T19:35:09.333Z,79
2022-09-18T19:38:09.341Z,79
2022-09-18T19:41:09.324Z,79
2022-09-18T19:44:09.324Z,79
2022-09-18T19:47:09.341Z,79
2022-09-18T19:50:09.328Z,79
2022-09-18T19:53:09.320Z,79
2022-09-18T19:56:18.579Z,79
2022-09-18T19:59:09.326Z,79
2022-09-18T20:02:09.405Z,79
2022-09-18T20:05:09.324Z,79
2022-09-18T20:08:09.338Z,79
2022-09-18T20:11:09.329Z,79.5
2022-09-18T20:14:09.349Z,79.5
2022-09-18T20:17:09.333Z,79.5
2022-09-18T20:20:10.198Z,79.5
2022-09-18T20:23:09.347Z,79.5
2022-09-18T20:26:09.412Z,79.5
2022-09-18T20:29:11.166Z,79.5
2022-09-18T20:32:09.368Z,79.5
2022-09-18T20:35:09.342Z,79.5
2022-09-18T20:38:09.344Z,79.5
2022-09-18T20:41:09.349Z,79.5
2022-09-18T20:44:09.343Z,79.5
2022-09-18T20:47:09.335Z,79.5
2022-09-18T20:50:09.332Z,79.5
2022-09-18T20:53:09.354Z,79.5
2022-09-18T20:56:09.347Z,79.5
2022-09-18T20:59:09.343Z,79.5
2022-09-18T21:02:09.349Z,79.5
2022-09-18T21:05:09.339Z,79.5
2022-09-18T21:08:09.354Z,79.5
2022-09-18T21:11:09.358Z,79.5
2022-09-18T21:14:09.335Z,79.5
2022-09-18T21:17:09.367Z,79.5
2022-09-18T21:20:09.343Z,79.5
2022-09-18T21:23:09.371Z,79.5
2022-09-18T21:26:09.350Z,79.5
2022-09-18T21:29:09.356Z,79.5
2022-09-18T21:32:09.376Z,79.5
2022-09-18T21:35:09.344Z,79.5
2022-09-18T21:38:12.739Z,79.5
2022-09-18T21:41:09.350Z,79.5
2022-09-18T21:44:09.343Z,79.5
2022-09-18T21:47:09.377Z,79.5
2022-09-18T21:50:09.353Z,79.5
2022-09-18T21:53:09.374Z,79.5
2022-09-18T21:56:09.378Z,79.5
2022-09-18T21:59:09.348Z,80
2022-09-18T22:02:09.415Z,80
2022-09-18T22:05:09.361Z,80
2022-09-18T22:08:09.376Z,80
2022-09-18T22:11:09.359Z,80
2022-09-18T22:14:09.367Z,79.5
2022-09-18T22:17:09.365Z,79.5
2022-09-18T22:20:09.384Z,79.5
2022-09-18T22:23:09.380Z,80
2022-09-18T22:26:09.369Z,79.5
2022-09-18T22:29:09.372Z,79.5
2022-09-18T22:32:09.377Z,80
2022-09-18T22:35:09.371Z,80
2022-09-18T22:38:09.370Z,80
2022-09-18T22:41:09.367Z,80
2022-09-18T22:44:09.383Z,80
2022-09-18T22:47:09.369Z,80
2022-09-18T22:50:09.365Z,80
2022-09-18T22:53:09.387Z,80
2022-09-18T22:56:09.366Z,80
2022-09-18T22:59:09.364Z,80
2022-09-18T23:02:09.404Z,80
2022-09-18T23:05:09.362Z,80
2022-09-18T23:08:09.391Z,80
2022-09-18T23:11:09.382Z,80
2022-09-18T23:14:09.366Z,80
2022-09-18T23:17:09.369Z,80
2022-09-18T23:20:09.365Z,80
2022-09-18T23:23:09.396Z,80
2022-09-18T23:26:09.395Z,80
2022-09-18T23:29:09.366Z,80
2022-09-18T23:32:09.388Z,80
2022-09-18T23:35:09.369Z,80
2022-09-18T23:38:09.396Z,80
2022-09-18T23:41:09.382Z,80
2022-09-18T23:44:09.394Z,80
2022-09-18T23:47:09.387Z,80
2022-09-18T23:50:09.370Z,80
2022-09-18T23:53:09.395Z,80.5
2022-09-18T23:56:09.389Z,80.5
2022-09-18T23:59:09.372Z,80.5
